sensor_id;sensor_type;location;lat;lon;timestamp;P1;durP1;ratioP1;P2;durP2;ratioP2
70467;SDS011;57934;51.532;7.684;2022-12-20T00:01:58;3.72;;;2.45;;
70467;SDS011;57934;51.532;7.684;2022-12-20T00:04:24;3.78;;;2.47;;
70467;SDS011;57934;51.532;7.684;2022-12-20T00:06:50;6.60;;;2.45;;
70467;SDS011;57934;51.532;7.684;2022-12-20T00:09:16;5.10;;;2.50;;
70467;SDS011;57934;51.532;7.684;2022-12-20T00:11:42;2.72;;;2.20;;
70467;SDS011;57934;51.532;7.684;2022-12-20T00:14:08;4.82;;;2.55;;
70467;SDS011;57934;51.532;7.684;2022-12-20T00:16:35;4.53;;;2.58;;
70467;SDS011;57934;51.532;7.684;2022-12-20T00:19:02;2.33;;;2.03;;
70467;SDS011;57934;51.532;7.684;2022-12-20T00:21:30;2.70;;;2.30;;
70467;SDS011;57934;51.532;7.684;2022-12-20T00:23:58;2.40;;;1.85;;
70467;SDS011;57934;51.532;7.684;2022-12-20T00:26:26;2.72;;;2.03;;
70467;SDS011;57934;51.532;7.684;2022-12-20T00:28:54;5.60;;;2.08;;
70467;SDS011;57934;51.532;7.684;2022-12-20T00:31:22;2.85;;;2.00;;
70467;SDS011;57934;51.532;7.684;2022-12-20T00:33:50;3.83;;;2.20;;
70467;SDS011;57934;51.532;7.684;2022-12-20T00:36:17;4.70;;;2.05;;
70467;SDS011;57934;51.532;7.684;2022-12-20T00:38:48;4.22;;;2.22;;
70467;SDS011;57934;51.532;7.684;2022-12-20T00:41:19;2.90;;;2.42;;
70467;SDS011;57934;51.532;7.684;2022-12-20T00:43:47;3.00;;;1.73;;
70467;SDS011;57934;51.532;7.684;2022-12-20T00:46:15;3.35;;;1.85;;
70467;SDS011;57934;51.532;7.684;2022-12-20T00:48:42;2.65;;;2.05;;
70467;SDS011;57934;51.532;7.684;2022-12-20T00:51:10;5.30;;;2.25;;
70467;SDS011;57934;51.532;7.684;2022-12-20T00:53:38;3.22;;;2.00;;
70467;SDS011;57934;51.532;7.684;2022-12-20T00:56:04;4.00;;;2.22;;
70467;SDS011;57934;51.532;7.684;2022-12-20T00:58:32;3.72;;;2.10;;
70467;SDS011;57934;51.532;7.684;2022-12-20T01:01:00;1.90;;;1.70;;
70467;SDS011;57934;51.532;7.684;2022-12-20T01:03:26;5.10;;;2.53;;
70467;SDS011;57934;51.532;7.684;2022-12-20T01:05:53;2.72;;;1.60;;
70467;SDS011;57934;51.532;7.684;2022-12-20T01:08:21;3.83;;;1.80;;
70467;SDS011;57934;51.532;7.684;2022-12-20T01:11:11;2.60;;;1.90;;
70467;SDS011;57934;51.532;7.684;2022-12-20T01:13:42;2.25;;;1.73;;
70467;SDS011;57934;51.532;7.684;2022-12-20T01:16:15;2.05;;;1.60;;
70467;SDS011;57934;51.532;7.684;2022-12-20T01:18:43;3.17;;;1.60;;
70467;SDS011;57934;51.532;7.684;2022-12-20T01:21:11;2.60;;;1.75;;
70467;SDS011;57934;51.532;7.684;2022-12-20T01:23:39;2.95;;;1.95;;
70467;SDS011;57934;51.532;7.684;2022-12-20T01:26:06;2.45;;;1.42;;
70467;SDS011;57934;51.532;7.684;2022-12-20T01:28:34;3.95;;;1.60;;
70467;SDS011;57934;51.532;7.684;2022-12-20T01:31:01;3.55;;;2.25;;
70467;SDS011;57934;51.532;7.684;2022-12-20T01:33:30;3.35;;;1.92;;
70467;SDS011;57934;51.532;7.684;2022-12-20T01:35:56;5.10;;;1.83;;
70467;SDS011;57934;51.532;7.684;2022-12-20T01:38:24;4.43;;;2.10;;
70467;SDS011;57934;51.532;7.684;2022-12-20T01:40:50;3.13;;;1.90;;
70467;SDS011;57934;51.532;7.684;2022-12-20T01:43:17;3.83;;;1.85;;
70467;SDS011;57934;51.532;7.684;2022-12-20T01:45:44;2.63;;;1.83;;
70467;SDS011;57934;51.532;7.684;2022-12-20T01:48:12;2.60;;;1.50;;
70467;SDS011;57934;51.532;7.684;2022-12-20T01:50:46;2.65;;;1.70;;
70467;SDS011;57934;51.532;7.684;2022-12-20T01:53:15;3.17;;;2.00;;
70467;SDS011;57934;51.532;7.684;2022-12-20T01:55:43;3.00;;;2.03;;
70467;SDS011;57934;51.532;7.684;2022-12-20T01:58:12;2.10;;;1.85;;
70467;SDS011;57934;51.532;7.684;2022-12-20T02:00:40;2.17;;;1.90;;
70467;SDS011;57934;51.532;7.684;2022-12-20T02:03:08;2.65;;;1.70;;
70467;SDS011;57934;51.532;7.684;2022-12-20T02:05:41;3.58;;;1.88;;
70467;SDS011;57934;51.532;7.684;2022-12-20T02:08:10;2.88;;;2.10;;
70467;SDS011;57934;51.532;7.684;2022-12-20T02:13:19;2.08;;;1.80;;
70467;SDS011;57934;51.532;7.684;2022-12-20T02:15:59;2.60;;;1.93;;
70467;SDS011;57934;51.532;7.684;2022-12-20T02:18:29;2.30;;;2.05;;
70467;SDS011;57934;51.532;7.684;2022-12-20T02:21:07;7.55;;;2.20;;
70467;SDS011;57934;51.532;7.684;2022-12-20T02:24:17;2.00;;;1.83;;
70467;SDS011;57934;51.532;7.684;2022-12-20T02:27:21;3.25;;;1.83;;
70467;SDS011;57934;51.532;7.684;2022-12-20T02:35:31;2.75;;;1.83;;
70467;SDS011;57934;51.532;7.684;2022-12-20T02:38:02;2.35;;;1.92;;
70467;SDS011;57934;51.532;7.684;2022-12-20T02:40:48;2.67;;;1.85;;
70467;SDS011;57934;51.532;7.684;2022-12-20T02:43:18;3.05;;;2.15;;
70467;SDS011;57934;51.532;7.684;2022-12-20T02:46:06;2.72;;;1.60;;
70467;SDS011;57934;51.532;7.684;2022-12-20T02:48:34;3.38;;;1.88;;
70467;SDS011;57934;51.532;7.684;2022-12-20T02:51:03;2.20;;;1.90;;
70467;SDS011;57934;51.532;7.684;2022-12-20T02:53:31;2.60;;;2.10;;
70467;SDS011;57934;51.532;7.684;2022-12-20T02:56:07;6.13;;;2.13;;
70467;SDS011;57934;51.532;7.684;2022-12-20T02:58:54;2.30;;;1.92;;
70467;SDS011;57934;51.532;7.684;2022-12-20T03:01:28;5.88;;;2.00;;
70467;SDS011;57934;51.532;7.684;2022-12-20T03:03:58;2.05;;;1.77;;
70467;SDS011;57934;51.532;7.684;2022-12-20T03:06:25;3.28;;;2.78;;
70467;SDS011;57934;51.532;7.684;2022-12-20T03:08:51;3.15;;;2.33;;
70467;SDS011;57934;51.532;7.684;2022-12-20T03:11:17;2.20;;;2.00;;
70467;SDS011;57934;51.532;7.684;2022-12-20T03:13:45;5.03;;;2.47;;
70467;SDS011;57934;51.532;7.684;2022-12-20T03:16:11;3.50;;;2.17;;
70467;SDS011;57934;51.532;7.684;2022-12-20T03:18:37;5.25;;;2.20;;
70467;SDS011;57934;51.532;7.684;2022-12-20T03:21:03;6.50;;;2.33;;
70467;SDS011;57934;51.532;7.684;2022-12-20T03:23:30;3.67;;;2.45;;
70467;SDS011;57934;51.532;7.684;2022-12-20T03:25:56;3.42;;;2.17;;
70467;SDS011;57934;51.532;7.684;2022-12-20T03:28:45;3.50;;;2.20;;
70467;SDS011;57934;51.532;7.684;2022-12-20T03:31:15;5.00;;;2.05;;
70467;SDS011;57934;51.532;7.684;2022-12-20T03:33:46;3.47;;;2.33;;
70467;SDS011;57934;51.532;7.684;2022-12-20T03:36:13;2.45;;;2.25;;
70467;SDS011;57934;51.532;7.684;2022-12-20T03:38:39;3.80;;;1.80;;
70467;SDS011;57934;51.532;7.684;2022-12-20T03:41:07;3.90;;;2.22;;
70467;SDS011;57934;51.532;7.684;2022-12-20T03:43:33;2.42;;;2.13;;
70467;SDS011;57934;51.532;7.684;2022-12-20T03:45:59;3.40;;;1.88;;
70467;SDS011;57934;51.532;7.684;2022-12-20T03:48:29;2.88;;;2.03;;
70467;SDS011;57934;51.532;7.684;2022-12-20T03:50:55;2.97;;;2.28;;
70467;SDS011;57934;51.532;7.684;2022-12-20T03:53:21;2.75;;;2.20;;
70467;SDS011;57934;51.532;7.684;2022-12-20T03:55:47;4.72;;;2.10;;
70467;SDS011;57934;51.532;7.684;2022-12-20T03:58:14;4.45;;;2.47;;
70467;SDS011;57934;51.532;7.684;2022-12-20T04:00:40;3.95;;;2.30;;
70467;SDS011;57934;51.532;7.684;2022-12-20T04:03:29;3.67;;;2.58;;
70467;SDS011;57934;51.532;7.684;2022-12-20T04:05:55;4.18;;;2.03;;
70467;SDS011;57934;51.532;7.684;2022-12-20T04:08:21;4.93;;;2.60;;
70467;SDS011;57934;51.532;7.684;2022-12-20T04:10:49;3.55;;;2.53;;
70467;SDS011;57934;51.532;7.684;2022-12-20T04:13:35;4.03;;;2.33;;
70467;SDS011;57934;51.532;7.684;2022-12-20T04:16:02;6.43;;;2.30;;
70467;SDS011;57934;51.532;7.684;2022-12-20T04:18:31;5.18;;;2.70;;
70467;SDS011;57934;51.532;7.684;2022-12-20T04:20:59;7.47;;;2.45;;
70467;SDS011;57934;51.532;7.684;2022-12-20T04:23:28;4.18;;;2.55;;
70467;SDS011;57934;51.532;7.684;2022-12-20T04:25:54;4.60;;;2.67;;
70467;SDS011;57934;51.532;7.684;2022-12-20T04:28:20;4.63;;;2.63;;
70467;SDS011;57934;51.532;7.684;2022-12-20T04:30:47;4.60;;;2.92;;
70467;SDS011;57934;51.532;7.684;2022-12-20T04:33:17;4.20;;;2.65;;
70467;SDS011;57934;51.532;7.684;2022-12-20T04:35:44;3.85;;;2.58;;
70467;SDS011;57934;51.532;7.684;2022-12-20T04:38:10;4.38;;;2.53;;
70467;SDS011;57934;51.532;7.684;2022-12-20T04:40:36;4.95;;;2.47;;
70467;SDS011;57934;51.532;7.684;2022-12-20T04:43:04;2.50;;;2.30;;
70467;SDS011;57934;51.532;7.684;2022-12-20T04:45:30;4.45;;;2.80;;
70467;SDS011;57934;51.532;7.684;2022-12-20T04:47:56;4.63;;;2.70;;
70467;SDS011;57934;51.532;7.684;2022-12-20T04:50:29;4.28;;;2.88;;
70467;SDS011;57934;51.532;7.684;2022-12-20T04:52:55;4.25;;;3.10;;
70467;SDS011;57934;51.532;7.684;2022-12-20T04:55:40;5.75;;;2.70;;
70467;SDS011;57934;51.532;7.684;2022-12-20T04:58:06;3.10;;;2.80;;
70467;SDS011;57934;51.532;7.684;2022-12-20T05:00:34;6.07;;;2.70;;
70467;SDS011;57934;51.532;7.684;2022-12-20T05:03:08;6.30;;;2.80;;
70467;SDS011;57934;51.532;7.684;2022-12-20T05:05:34;5.03;;;3.10;;
70467;SDS011;57934;51.532;7.684;2022-12-20T05:08:00;4.47;;;2.83;;
70467;SDS011;57934;51.532;7.684;2022-12-20T05:10:28;5.15;;;2.90;;
70467;SDS011;57934;51.532;7.684;2022-12-20T05:12:57;7.28;;;3.22;;
70467;SDS011;57934;51.532;7.684;2022-12-20T05:15:32;5.75;;;2.88;;
70467;SDS011;57934;51.532;7.684;2022-12-20T05:17:58;4.53;;;3.25;;
70467;SDS011;57934;51.532;7.684;2022-12-20T05:20:30;8.20;;;2.97;;
70467;SDS011;57934;51.532;7.684;2022-12-20T05:22:59;3.88;;;3.10;;
70467;SDS011;57934;51.532;7.684;2022-12-20T05:25:46;7.10;;;3.55;;
70467;SDS011;57934;51.532;7.684;2022-12-20T05:28:33;4.50;;;3.28;;
70467;SDS011;57934;51.532;7.684;2022-12-20T05:30:59;6.15;;;3.35;;
70467;SDS011;57934;51.532;7.684;2022-12-20T05:33:29;5.72;;;3.33;;
70467;SDS011;57934;51.532;7.684;2022-12-20T05:35:55;7.82;;;3.38;;
70467;SDS011;57934;51.532;7.684;2022-12-20T05:38:22;4.78;;;3.85;;
70467;SDS011;57934;51.532;7.684;2022-12-20T05:40:49;4.70;;;3.35;;
70467;SDS011;57934;51.532;7.684;2022-12-20T05:43:17;5.95;;;3.35;;
70467;SDS011;57934;51.532;7.684;2022-12-20T05:45:45;4.47;;;3.70;;
70467;SDS011;57934;51.532;7.684;2022-12-20T05:48:14;7.25;;;3.42;;
70467;SDS011;57934;51.532;7.684;2022-12-20T05:50:42;5.05;;;2.97;;
70467;SDS011;57934;51.532;7.684;2022-12-20T05:53:29;11.10;;;3.20;;
70467;SDS011;57934;51.532;7.684;2022-12-20T05:55:58;7.75;;;3.75;;
70467;SDS011;57934;51.532;7.684;2022-12-20T05:58:30;4.47;;;3.10;;
70467;SDS011;57934;51.532;7.684;2022-12-20T06:01:01;5.97;;;3.30;;
70467;SDS011;57934;51.532;7.684;2022-12-20T06:03:32;7.45;;;3.30;;
70467;SDS011;57934;51.532;7.684;2022-12-20T06:05:59;4.93;;;3.13;;
70467;SDS011;57934;51.532;7.684;2022-12-20T06:08:28;5.57;;;3.55;;
70467;SDS011;57934;51.532;7.684;2022-12-20T06:10:56;3.42;;;2.90;;
70467;SDS011;57934;51.532;7.684;2022-12-20T06:13:23;6.13;;;3.80;;
70467;SDS011;57934;51.532;7.684;2022-12-20T06:15:51;6.25;;;2.80;;
70467;SDS011;57934;51.532;7.684;2022-12-20T06:18:19;5.63;;;3.17;;
70467;SDS011;57934;51.532;7.684;2022-12-20T06:20:50;3.33;;;3.03;;
70467;SDS011;57934;51.532;7.684;2022-12-20T06:23:20;7.20;;;3.55;;
70467;SDS011;57934;51.532;7.684;2022-12-20T06:25:55;4.47;;;3.25;;
70467;SDS011;57934;51.532;7.684;2022-12-20T06:28:23;6.70;;;3.30;;
70467;SDS011;57934;51.532;7.684;2022-12-20T06:30:53;5.22;;;2.90;;
70467;SDS011;57934;51.532;7.684;2022-12-20T06:33:34;5.05;;;3.05;;
70467;SDS011;57934;51.532;7.684;2022-12-20T06:36:01;6.28;;;3.05;;
70467;SDS011;57934;51.532;7.684;2022-12-20T06:38:27;5.03;;;3.40;;
70467;SDS011;57934;51.532;7.684;2022-12-20T06:40:53;6.18;;;2.97;;
70467;SDS011;57934;51.532;7.684;2022-12-20T06:43:19;4.70;;;3.88;;
70467;SDS011;57934;51.532;7.684;2022-12-20T06:45:46;2.90;;;2.60;;
70467;SDS011;57934;51.532;7.684;2022-12-20T06:48:12;4.80;;;2.60;;
70467;SDS011;57934;51.532;7.684;2022-12-20T06:50:40;9.40;;;2.92;;
70467;SDS011;57934;51.532;7.684;2022-12-20T06:53:07;5.30;;;2.83;;
70467;SDS011;57934;51.532;7.684;2022-12-20T06:55:33;4.72;;;3.25;;
70467;SDS011;57934;51.532;7.684;2022-12-20T06:57:59;5.63;;;2.88;;
70467;SDS011;57934;51.532;7.684;2022-12-20T07:00:25;7.75;;;3.10;;
70467;SDS011;57934;51.532;7.684;2022-12-20T07:02:52;3.45;;;2.30;;
70467;SDS011;57934;51.532;7.684;2022-12-20T07:05:17;5.07;;;2.60;;
70467;SDS011;57934;51.532;7.684;2022-12-20T07:07:43;3.20;;;2.58;;
70467;SDS011;57934;51.532;7.684;2022-12-20T07:10:09;4.80;;;2.40;;
70467;SDS011;57934;51.532;7.684;2022-12-20T07:12:35;4.60;;;2.35;;
70467;SDS011;57934;51.532;7.684;2022-12-20T07:15:01;2.55;;;2.28;;
70467;SDS011;57934;51.532;7.684;2022-12-20T07:17:27;4.25;;;2.60;;
70467;SDS011;57934;51.532;7.684;2022-12-20T07:19:53;4.65;;;2.40;;
70467;SDS011;57934;51.532;7.684;2022-12-20T07:22:19;4.63;;;2.88;;
70467;SDS011;57934;51.532;7.684;2022-12-20T07:24:45;3.30;;;2.15;;
70467;SDS011;57934;51.532;7.684;2022-12-20T07:27:12;3.75;;;2.72;;
70467;SDS011;57934;51.532;7.684;2022-12-20T07:29:38;3.15;;;2.40;;
70467;SDS011;57934;51.532;7.684;2022-12-20T07:32:06;2.88;;;2.33;;
70467;SDS011;57934;51.532;7.684;2022-12-20T07:34:32;4.65;;;2.33;;
70467;SDS011;57934;51.532;7.684;2022-12-20T07:36:58;4.78;;;2.72;;
70467;SDS011;57934;51.532;7.684;2022-12-20T07:39:24;3.88;;;2.60;;
70467;SDS011;57934;51.532;7.684;2022-12-20T07:41:54;3.17;;;2.30;;
70467;SDS011;57934;51.532;7.684;2022-12-20T07:44:21;4.47;;;2.78;;
70467;SDS011;57934;51.532;7.684;2022-12-20T07:46:48;6.47;;;2.25;;
70467;SDS011;57934;51.532;7.684;2022-12-20T07:49:14;2.70;;;2.22;;
70467;SDS011;57934;51.532;7.684;2022-12-20T07:51:50;2.80;;;2.42;;
70467;SDS011;57934;51.532;7.684;2022-12-20T07:54:21;3.72;;;2.22;;
70467;SDS011;57934;51.532;7.684;2022-12-20T07:56:56;3.58;;;2.25;;
70467;SDS011;57934;51.532;7.684;2022-12-20T07:59:28;2.78;;;2.20;;
70467;SDS011;57934;51.532;7.684;2022-12-20T08:02:01;4.63;;;2.30;;
70467;SDS011;57934;51.532;7.684;2022-12-20T08:04:27;3.35;;;2.08;;
70467;SDS011;57934;51.532;7.684;2022-12-20T08:06:55;2.55;;;2.00;;
70467;SDS011;57934;51.532;7.684;2022-12-20T08:09:24;2.70;;;2.05;;
70467;SDS011;57934;51.532;7.684;2022-12-20T08:11:53;2.95;;;1.90;;
70467;SDS011;57934;51.532;7.684;2022-12-20T08:14:20;5.43;;;1.98;;
70467;SDS011;57934;51.532;7.684;2022-12-20T08:16:46;4.90;;;2.58;;
70467;SDS011;57934;51.532;7.684;2022-12-20T08:19:12;3.30;;;2.30;;
70467;SDS011;57934;51.532;7.684;2022-12-20T08:21:38;3.70;;;2.00;;
70467;SDS011;57934;51.532;7.684;2022-12-20T08:24:04;4.82;;;2.10;;
70467;SDS011;57934;51.532;7.684;2022-12-20T08:26:30;4.30;;;1.88;;
70467;SDS011;57934;51.532;7.684;2022-12-20T08:28:56;6.03;;;1.90;;
70467;SDS011;57934;51.532;7.684;2022-12-20T08:31:22;1.70;;;1.60;;
70467;SDS011;57934;51.532;7.684;2022-12-20T08:33:48;4.38;;;1.95;;
70467;SDS011;57934;51.532;7.684;2022-12-20T08:36:14;3.30;;;2.05;;
70467;SDS011;57934;51.532;7.684;2022-12-20T08:38:40;4.22;;;1.67;;
70467;SDS011;57934;51.532;7.684;2022-12-20T08:41:10;4.65;;;2.00;;
70467;SDS011;57934;51.532;7.684;2022-12-20T08:43:38;3.78;;;1.60;;
70467;SDS011;57934;51.532;7.684;2022-12-20T08:46:04;2.22;;;1.85;;
70467;SDS011;57934;51.532;7.684;2022-12-20T08:48:31;3.47;;;1.85;;
70467;SDS011;57934;51.532;7.684;2022-12-20T08:50:59;2.95;;;2.22;;
70467;SDS011;57934;51.532;7.684;2022-12-20T08:53:27;3.03;;;1.63;;
70467;SDS011;57934;51.532;7.684;2022-12-20T08:56:01;3.80;;;1.83;;
70467;SDS011;57934;51.532;7.684;2022-12-20T08:58:37;3.63;;;1.48;;
70467;SDS011;57934;51.532;7.684;2022-12-20T09:01:05;3.17;;;1.98;;
70467;SDS011;57934;51.532;7.684;2022-12-20T09:03:34;3.67;;;1.80;;
70467;SDS011;57934;51.532;7.684;2022-12-20T09:06:00;2.95;;;1.85;;
70467;SDS011;57934;51.532;7.684;2022-12-20T09:08:32;4.35;;;1.45;;
70467;SDS011;57934;51.532;7.684;2022-12-20T09:11:04;2.28;;;1.63;;
70467;SDS011;57934;51.532;7.684;2022-12-20T09:13:38;2.97;;;1.73;;
70467;SDS011;57934;51.532;7.684;2022-12-20T09:16:05;4.35;;;1.60;;
70467;SDS011;57934;51.532;7.684;2022-12-20T09:18:32;2.15;;;1.48;;
70467;SDS011;57934;51.532;7.684;2022-12-20T09:20:59;2.88;;;1.63;;
70467;SDS011;57934;51.532;7.684;2022-12-20T09:23:26;2.65;;;1.73;;
70467;SDS011;57934;51.532;7.684;2022-12-20T09:25:53;3.53;;;1.70;;
70467;SDS011;57934;51.532;7.684;2022-12-20T09:28:20;6.10;;;2.30;;
70467;SDS011;57934;51.532;7.684;2022-12-20T09:30:46;3.95;;;1.67;;
70467;SDS011;57934;51.532;7.684;2022-12-20T09:33:12;2.30;;;1.70;;
70467;SDS011;57934;51.532;7.684;2022-12-20T09:35:45;3.15;;;1.60;;
70467;SDS011;57934;51.532;7.684;2022-12-20T09:38:11;2.97;;;1.60;;
70467;SDS011;57934;51.532;7.684;2022-12-20T09:40:39;3.75;;;1.77;;
70467;SDS011;57934;51.532;7.684;2022-12-20T09:43:12;2.30;;;1.95;;
70467;SDS011;57934;51.532;7.684;2022-12-20T09:45:40;2.78;;;1.73;;
70467;SDS011;57934;51.532;7.684;2022-12-20T09:48:20;4.95;;;1.85;;
70467;SDS011;57934;51.532;7.684;2022-12-20T09:50:56;4.25;;;2.22;;
70467;SDS011;57934;51.532;7.684;2022-12-20T09:54:05;3.17;;;1.75;;
70467;SDS011;57934;51.532;7.684;2022-12-20T09:56:34;3.63;;;1.83;;
70467;SDS011;57934;51.532;7.684;2022-12-20T09:59:04;2.58;;;1.60;;
70467;SDS011;57934;51.532;7.684;2022-12-20T10:01:32;2.25;;;1.90;;
70467;SDS011;57934;51.532;7.684;2022-12-20T10:04:01;2.10;;;1.52;;
70467;SDS011;57934;51.532;7.684;2022-12-20T10:06:46;2.75;;;1.83;;
70467;SDS011;57934;51.532;7.684;2022-12-20T10:12:16;2.03;;;1.60;;
70467;SDS011;57934;51.532;7.684;2022-12-20T10:15:20;2.15;;;1.38;;
70467;SDS011;57934;51.532;7.684;2022-12-20T10:20:56;4.32;;;2.25;;
70467;SDS011;57934;51.532;7.684;2022-12-20T10:26:14;3.17;;;1.38;;
70467;SDS011;57934;51.532;7.684;2022-12-20T10:28:40;2.28;;;1.75;;
70467;SDS011;57934;51.532;7.684;2022-12-20T10:31:07;2.28;;;1.50;;
70467;SDS011;57934;51.532;7.684;2022-12-20T10:33:38;3.38;;;2.00;;
70467;SDS011;57934;51.532;7.684;2022-12-20T10:36:24;3.00;;;1.95;;
70467;SDS011;57934;51.532;7.684;2022-12-20T10:38:56;1.70;;;1.60;;
70467;SDS011;57934;51.532;7.684;2022-12-20T10:41:28;2.28;;;1.30;;
70467;SDS011;57934;51.532;7.684;2022-12-20T10:44:00;2.60;;;1.65;;
70467;SDS011;57934;51.532;7.684;2022-12-20T10:46:36;2.80;;;1.75;;
70467;SDS011;57934;51.532;7.684;2022-12-20T10:49:19;4.88;;;1.90;;
70467;SDS011;57934;51.532;7.684;2022-12-20T10:51:51;4.72;;;2.15;;
70467;SDS011;57934;51.532;7.684;2022-12-20T10:54:22;4.45;;;1.55;;
70467;SDS011;57934;51.532;7.684;2022-12-20T11:01:56;2.67;;;1.13;;
70467;SDS011;57934;51.532;7.684;2022-12-20T11:06:54;4.38;;;1.95;;
70467;SDS011;57934;51.532;7.684;2022-12-20T11:14:31;2.03;;;1.70;;
70467;SDS011;57934;51.532;7.684;2022-12-20T11:16:59;5.63;;;1.45;;
70467;SDS011;57934;51.532;7.684;2022-12-20T11:28:29;4.53;;;1.58;;
70467;SDS011;57934;51.532;7.684;2022-12-20T11:33:49;4.82;;;1.40;;
70467;SDS011;57934;51.532;7.684;2022-12-20T11:39:26;3.35;;;1.65;;
70467;SDS011;57934;51.532;7.684;2022-12-20T11:49:42;2.83;;;1.50;;
70467;SDS011;57934;51.532;7.684;2022-12-20T11:55:20;2.65;;;1.63;;
70467;SDS011;57934;51.532;7.684;2022-12-20T11:57:59;3.00;;;1.77;;
70467;SDS011;57934;51.532;7.684;2022-12-20T12:00:31;2.72;;;1.85;;
70467;SDS011;57934;51.532;7.684;2022-12-20T12:05:54;4.50;;;1.42;;
70467;SDS011;57934;51.532;7.684;2022-12-20T12:11:03;4.32;;;1.52;;
70467;SDS011;57934;51.532;7.684;2022-12-20T12:13:51;2.67;;;1.30;;
70467;SDS011;57934;51.532;7.684;2022-12-20T12:16:31;4.57;;;1.55;;
70467;SDS011;57934;51.532;7.684;2022-12-20T12:19:01;6.93;;;1.65;;
70467;SDS011;57934;51.532;7.684;2022-12-20T12:21:32;3.05;;;1.20;;
70467;SDS011;57934;51.532;7.684;2022-12-20T12:26:52;2.72;;;1.50;;
70467;SDS011;57934;51.532;7.684;2022-12-20T12:29:18;3.25;;;1.38;;
70467;SDS011;57934;51.532;7.684;2022-12-20T12:31:50;2.70;;;1.90;;
70467;SDS011;57934;51.532;7.684;2022-12-20T12:34:35;3.53;;;1.40;;
70467;SDS011;57934;51.532;7.684;2022-12-20T12:45:51;2.22;;;1.42;;
70467;SDS011;57934;51.532;7.684;2022-12-20T12:48:24;2.03;;;1.80;;
70467;SDS011;57934;51.532;7.684;2022-12-20T12:50:59;3.70;;;2.35;;
70467;SDS011;57934;51.532;7.684;2022-12-20T13:05:00;3.10;;;1.52;;
70467;SDS011;57934;51.532;7.684;2022-12-20T13:07:49;4.75;;;1.52;;
70467;SDS011;57934;51.532;7.684;2022-12-20T13:17:52;4.88;;;1.83;;
70467;SDS011;57934;51.532;7.684;2022-12-20T13:20:22;2.78;;;1.45;;
70467;SDS011;57934;51.532;7.684;2022-12-20T13:25:45;5.35;;;1.70;;
70467;SDS011;57934;51.532;7.684;2022-12-20T13:38:51;4.05;;;1.50;;
70467;SDS011;57934;51.532;7.684;2022-12-20T13:43:59;4.18;;;2.30;;
70467;SDS011;57934;51.532;7.684;2022-12-20T13:49:20;2.05;;;1.60;;
70467;SDS011;57934;51.532;7.684;2022-12-20T13:52:05;2.45;;;1.65;;
70467;SDS011;57934;51.532;7.684;2022-12-20T13:54:48;3.70;;;1.67;;
70467;SDS011;57934;51.532;7.684;2022-12-20T13:57:25;4.57;;;1.83;;
70467;SDS011;57934;51.532;7.684;2022-12-20T14:00:02;2.33;;;1.73;;
70467;SDS011;57934;51.532;7.684;2022-12-20T14:02:32;2.58;;;1.83;;
70467;SDS011;57934;51.532;7.684;2022-12-20T14:05:06;3.30;;;1.73;;
70467;SDS011;57934;51.532;7.684;2022-12-20T14:07:39;3.65;;;1.98;;
70467;SDS011;57934;51.532;7.684;2022-12-20T14:10:17;3.13;;;1.85;;
70467;SDS011;57934;51.532;7.684;2022-12-20T14:12:45;2.97;;;1.85;;
70467;SDS011;57934;51.532;7.684;2022-12-20T14:15:22;5.00;;;1.40;;
70467;SDS011;57934;51.532;7.684;2022-12-20T14:17:50;4.10;;;1.85;;
70467;SDS011;57934;51.532;7.684;2022-12-20T14:20:19;2.60;;;2.00;;
70467;SDS011;57934;51.532;7.684;2022-12-20T14:25:24;3.78;;;1.73;;
70467;SDS011;57934;51.532;7.684;2022-12-20T14:27:54;3.50;;;2.38;;
70467;SDS011;57934;51.532;7.684;2022-12-20T14:30:40;4.38;;;1.65;;
70467;SDS011;57934;51.532;7.684;2022-12-20T14:36:08;3.03;;;2.10;;
70467;SDS011;57934;51.532;7.684;2022-12-20T14:38:35;7.63;;;1.95;;
70467;SDS011;57934;51.532;7.684;2022-12-20T14:41:01;2.85;;;1.98;;
70467;SDS011;57934;51.532;7.684;2022-12-20T14:43:28;4.20;;;1.77;;
70467;SDS011;57934;51.532;7.684;2022-12-20T14:46:18;2.25;;;1.67;;
70467;SDS011;57934;51.532;7.684;2022-12-20T14:48:45;6.03;;;2.90;;
70467;SDS011;57934;51.532;7.684;2022-12-20T14:51:12;4.88;;;2.45;;
70467;SDS011;57934;51.532;7.684;2022-12-20T14:53:44;4.07;;;2.50;;
70467;SDS011;57934;51.532;7.684;2022-12-20T14:56:16;6.97;;;3.70;;
70467;SDS011;57934;51.532;7.684;2022-12-20T14:58:44;4.65;;;2.90;;
70467;SDS011;57934;51.532;7.684;2022-12-20T15:03:52;8.43;;;3.15;;
70467;SDS011;57934;51.532;7.684;2022-12-20T15:06:33;3.53;;;2.67;;
70467;SDS011;57934;51.532;7.684;2022-12-20T15:09:04;2.65;;;2.22;;
70467;SDS011;57934;51.532;7.684;2022-12-20T15:11:30;4.90;;;3.00;;
70467;SDS011;57934;51.532;7.684;2022-12-20T15:13:58;4.53;;;2.65;;
70467;SDS011;57934;51.532;7.684;2022-12-20T15:16:26;6.07;;;2.80;;
70467;SDS011;57934;51.532;7.684;2022-12-20T15:18:58;6.97;;;3.10;;
70467;SDS011;57934;51.532;7.684;2022-12-20T15:21:36;5.10;;;3.47;;
70467;SDS011;57934;51.532;7.684;2022-12-20T15:24:08;6.40;;;3.55;;
70467;SDS011;57934;51.532;7.684;2022-12-20T15:26:37;8.52;;;2.80;;
70467;SDS011;57934;51.532;7.684;2022-12-20T15:29:03;7.50;;;3.58;;
70467;SDS011;57934;51.532;7.684;2022-12-20T15:31:29;6.00;;;3.20;;
70467;SDS011;57934;51.532;7.684;2022-12-20T15:33:59;9.68;;;3.67;;
70467;SDS011;57934;51.532;7.684;2022-12-20T15:36:27;4.18;;;3.05;;
70467;SDS011;57934;51.532;7.684;2022-12-20T15:38:54;6.38;;;3.17;;
70467;SDS011;57934;51.532;7.684;2022-12-20T15:41:22;6.10;;;3.55;;
70467;SDS011;57934;51.532;7.684;2022-12-20T15:43:55;7.93;;;4.10;;
70467;SDS011;57934;51.532;7.684;2022-12-20T15:46:24;7.80;;;3.70;;
70467;SDS011;57934;51.532;7.684;2022-12-20T15:48:51;5.47;;;3.58;;
70467;SDS011;57934;51.532;7.684;2022-12-20T15:51:21;10.23;;;4.10;;
70467;SDS011;57934;51.532;7.684;2022-12-20T15:53:53;7.47;;;4.55;;
70467;SDS011;57934;51.532;7.684;2022-12-20T15:56:20;8.40;;;3.95;;
70467;SDS011;57934;51.532;7.684;2022-12-20T15:58:48;9.38;;;4.57;;
70467;SDS011;57934;51.532;7.684;2022-12-20T16:01:15;4.63;;;3.92;;
70467;SDS011;57934;51.532;7.684;2022-12-20T16:03:44;10.68;;;4.80;;
70467;SDS011;57934;51.532;7.684;2022-12-20T16:06:10;9.88;;;4.50;;
70467;SDS011;57934;51.532;7.684;2022-12-20T16:08:40;7.03;;;4.15;;
70467;SDS011;57934;51.532;7.684;2022-12-20T16:11:09;6.88;;;4.30;;
70467;SDS011;57934;51.532;7.684;2022-12-20T16:13:45;7.18;;;4.43;;
70467;SDS011;57934;51.532;7.684;2022-12-20T16:16:34;6.75;;;4.35;;
70467;SDS011;57934;51.532;7.684;2022-12-20T16:18:59;7.88;;;4.30;;
70467;SDS011;57934;51.532;7.684;2022-12-20T16:21:28;8.18;;;4.53;;
70467;SDS011;57934;51.532;7.684;2022-12-20T16:23:56;11.00;;;4.93;;
70467;SDS011;57934;51.532;7.684;2022-12-20T16:26:23;7.28;;;4.47;;
70467;SDS011;57934;51.532;7.684;2022-12-20T16:28:51;5.63;;;4.07;;
70467;SDS011;57934;51.532;7.684;2022-12-20T16:33:47;6.10;;;4.05;;
70467;SDS011;57934;51.532;7.684;2022-12-20T16:36:14;9.45;;;4.47;;
70467;SDS011;57934;51.532;7.684;2022-12-20T16:38:40;5.57;;;3.72;;
70467;SDS011;57934;51.532;7.684;2022-12-20T16:41:13;8.55;;;4.07;;
70467;SDS011;57934;51.532;7.684;2022-12-20T16:43:43;13.20;;;3.75;;
70467;SDS011;57934;51.532;7.684;2022-12-20T16:46:14;8.32;;;4.10;;
70467;SDS011;57934;51.532;7.684;2022-12-20T16:48:42;8.32;;;3.80;;
70467;SDS011;57934;51.532;7.684;2022-12-20T16:51:25;7.07;;;3.60;;
70467;SDS011;57934;51.532;7.684;2022-12-20T16:53:57;7.07;;;3.53;;
70467;SDS011;57934;51.532;7.684;2022-12-20T16:56:26;6.93;;;3.10;;
70467;SDS011;57934;51.532;7.684;2022-12-20T16:58:52;3.30;;;3.00;;
70467;SDS011;57934;51.532;7.684;2022-12-20T17:01:19;5.13;;;3.40;;
70467;SDS011;57934;51.532;7.684;2022-12-20T17:03:50;5.43;;;3.00;;
70467;SDS011;57934;51.532;7.684;2022-12-20T17:06:17;5.57;;;2.83;;
70467;SDS011;57934;51.532;7.684;2022-12-20T17:08:43;6.88;;;2.97;;